Time;durP1;ratioP1;P1;durP2;ratioP2;P2;SDS_P1;SDS_P2;PMS_P1;PMS_P2;Temp;Humidity;BMP_temperature;BMP_pressure;BME280_temperature;BME280_humidity;BME280_pressure;Samples;Min_cycle;Max_cycle;Signal;HPM_P1;HPM_P2
2021/11/30 00:02:36;;;;;;;19.23;10.00;;;0.20;99.90;;;;;;6288069;22;20118;-89
2021/11/30 00:05:27;;;;;;;13.80;9.35;;;0.20;99.90;;;;;;6287350;22;20460;-89
2021/11/30 00:08:16;;;;;;;13.20;8.93;;;0.10;99.90;;;;;;6307624;22;20346;-87
2021/11/30 00:11:06;;;;;;;15.40;8.63;;;0.10;99.90;;;;;;6286015;22;20102;-90
2021/11/30 00:13:56;;;;;;;13.70;8.93;;;0.10;99.90;;;;;;6286185;22;20397;-90
2021/11/30 00:16:43;;;;;;;14.82;8.88;;;0.10;99.90;;;;;;6311051;22;20019;-90
2021/11/30 00:19:30;;;;;;;18.23;9.50;;;0.10;99.90;;;;;;6309967;22;20023;-88
2021/11/30 00:22:21;;;;;;;17.85;9.18;;;0.10;99.90;;;;;;6286851;22;20080;-89
2021/11/30 00:25:08;;;;;;;19.90;10.15;;;0.10;99.90;;;;;;6287340;22;20034;-89
2021/11/30 00:27:58;;;;;;;19.50;10.23;;;0.20;99.90;;;;;;6285423;22;20338;-91
2021/11/30 00:30:49;;;;;;;15.05;8.93;;;0.20;99.90;;;;;;6308616;22;20410;-89
2021/11/30 00:33:39;;;;;;;13.73;8.68;;;0.30;99.90;;;;;;6282814;22;20023;-89
2021/11/30 00:36:28;;;;;;;14.57;8.82;;;0.30;99.90;;;;;;6264795;22;20023;-89
2021/11/30 00:39:16;;;;;;;14.27;9.55;;;0.30;99.90;;;;;;6285614;22;20380;-89
2021/11/30 00:42:03;;;;;;;15.30;9.30;;;0.30;99.90;;;;;;6285262;22;20073;-89
2021/11/30 00:44:53;;;;;;;11.48;8.57;;;0.30;99.90;;;;;;6310259;22;20088;-87
2021/11/30 00:47:57;;;;;;;15.70;9.02;;;0.30;99.90;;;;;;6285197;22;20043;-89
2021/11/30 00:50:45;;;;;;;12.60;8.63;;;0.30;99.90;;;;;;6283750;22;20027;-88
2021/11/30 00:53:35;;;;;;;12.43;8.48;;;0.30;99.90;;;;;;6285117;22;20034;-89
2021/11/30 00:56:22;;;;;;;11.75;8.38;;;0.30;99.90;;;;;;6309309;22;20126;-90
2021/11/30 00:59:12;;;;;;;15.55;8.75;;;0.30;99.90;;;;;;6283684;22;20023;-86
2021/11/30 01:01:59;;;;;;;11.68;8.00;;;0.30;99.90;;;;;;6264170;22;20364;-87
2021/11/30 01:04:48;;;;;;;11.85;7.50;;;0.30;99.90;;;;;;6284989;22;20026;-91
2021/11/30 01:07:36;;;;;;;9.95;7.63;;;0.30;99.90;;;;;;6308985;22;20027;-89
2021/11/30 01:10:23;;;;;;;8.00;7.18;;;0.30;99.90;;;;;;6285380;22;20116;-88
2021/11/30 01:13:13;;;;;;;8.93;7.45;;;0.30;99.90;;;;;;6267222;22;20299;-87
2021/11/30 01:16:01;;;;;;;13.40;8.38;;;0.30;99.90;;;;;;6285827;22;20031;-89
2021/11/30 01:18:51;;;;;;;9.70;6.75;;;0.30;99.90;;;;;;6285252;22;20410;-89
2021/11/30 01:21:39;;;;;;;9.75;6.88;;;0.30;99.90;;;;;;6263680;22;20460;-90
2021/11/30 01:24:26;;;;;;;11.93;7.00;;;0.30;99.90;;;;;;6285855;22;20019;-89
2021/11/30 01:27:13;;;;;;;11.30;7.32;;;0.30;99.90;;;;;;6286620;22;20023;-89
2021/11/30 01:30:06;;;;;;;9.20;6.93;;;0.30;99.90;;;;;;6294060;22;20398;-89
2021/11/30 01:32:53;;;;;;;8.60;5.90;;;0.30;99.90;;;;;;6325213;22;20098;-88
2021/11/30 01:35:43;;;;;;;9.38;6.60;;;0.30;99.90;;;;;;6299950;22;20038;-89
2021/11/30 01:38:32;;;;;;;7.90;5.90;;;0.30;99.90;;;;;;6289775;22;20023;-90
2021/11/30 01:41:19;;;;;;;8.15;5.50;;;0.30;99.90;;;;;;6264589;22;20391;-89
2021/11/30 01:44:11;;;;;;;6.50;5.05;;;0.30;99.90;;;;;;6306919;22;20034;-89
2021/11/30 01:49:46;;;;;;;6.80;5.18;;;0.20;99.90;;;;;;6303844;22;20031;-88
2021/11/30 01:52:35;;;;;;;6.38;5.20;;;0.20;99.90;;;;;;6284440;22;20031;-90
2021/11/30 01:55:27;;;;;;;8.48;5.07;;;0.10;99.90;;;;;;6284607;22;20492;-89
2021/11/30 01:58:15;;;;;;;8.10;5.30;;;0.10;99.90;;;;;;6284005;22;20330;-88
2021/11/30 02:01:02;;;;;;;12.18;5.03;;;0.20;99.90;;;;;;6261988;22;20603;-88
2021/11/30 02:03:50;;;;;;;7.88;4.78;;;0.10;99.90;;;;;;6261668;22;20019;-88
2021/11/30 02:06:38;;;;;;;8.73;5.82;;;0.20;99.90;;;;;;6260486;22;20038;-89
2021/11/30 02:09:27;;;;;;;6.65;5.35;;;0.20;99.90;;;;;;6264168;22;20023;-89
2021/11/30 02:12:15;;;;;;;10.68;5.75;;;0.20;99.90;;;;;;6285166;22;20031;-89
2021/11/30 02:15:04;;;;;;;9.88;5.55;;;0.20;99.90;;;;;;6305615;22;20123;-89
2021/11/30 02:17:57;;;;;;;11.15;5.25;;;0.30;99.90;;;;;;6284497;22;20069;-88
2021/11/30 02:20:47;;;;;;;12.02;5.20;;;0.30;99.90;;;;;;6283254;22;20027;-90
2021/11/30 02:24:10;;;;;;;8.27;4.18;;;0.30;99.90;;;;;;6283215;22;20460;-86
2021/11/30 02:26:53;;;;;;;12.60;5.28;;;0.30;99.90;;;;;;6289717;22;20153;-91
2021/11/30 02:29:42;;;;;;;11.00;5.28;;;0.30;99.90;;;;;;6283010;22;20093;-89
2021/11/30 02:32:35;;;;;;;8.95;5.25;;;0.20;99.90;;;;;;6306642;22;20073;-89
2021/11/30 02:35:22;;;;;;;6.35;4.30;;;0.20;99.90;;;;;;6283172;22;20027;-89
2021/11/30 02:38:15;;;;;;;9.20;5.20;;;0.20;99.90;;;;;;6263669;22;20023;-90
2021/11/30 02:41:03;;;;;;;6.45;4.50;;;0.20;99.90;;;;;;6304266;22;20120;-92
2021/11/30 02:43:53;;;;;;;13.15;5.18;;;0.20;99.90;;;;;;6305432;22;20118;-89
2021/11/30 02:46:47;;;;;;;11.75;4.47;;;0.20;99.90;;;;;;6303507;22;20026;-91
2021/11/30 02:49:38;;;;;;;6.57;4.30;;;0.20;99.90;;;;;;6306261;22;20050;-91
2021/11/30 02:52:27;;;;;;;13.38;4.65;;;0.10;99.90;;;;;;6282906;22;20015;-90
2021/11/30 02:55:14;;;;;;;6.55;3.60;;;0.20;99.90;;;;;;6263365;22;20053;-90
2021/11/30 02:58:01;;;;;;;5.55;3.30;;;0.20;99.90;;;;;;6306262;22;20072;-87
2021/11/30 03:00:49;;;;;;;6.90;3.58;;;0.30;99.90;;;;;;6306512;22;20030;-91
2021/11/30 03:03:38;;;;;;;8.25;3.40;;;0.30;99.90;;;;;;6263195;22;20023;-88
2021/11/30 03:06:26;;;;;;;6.28;3.53;;;0.30;99.90;;;;;;6306361;22;20605;-88
2021/11/30 03:09:15;;;;;;;7.43;3.20;;;0.30;99.90;;;;;;6280729;22;20346;-86
2021/11/30 03:12:02;;;;;;;10.52;3.72;;;0.30;99.90;;;;;;6282895;22;20148;-88
2021/11/30 03:14:50;;;;;;;9.10;3.75;;;0.30;99.90;;;;;;6264563;22;20057;-92
2021/11/30 03:17:40;;;;;;;5.68;3.60;;;0.30;99.90;;;;;;6283472;22;20502;-88
2021/11/30 03:20:28;;;;;;;7.07;4.20;;;0.30;99.90;;;;;;6306590;22;20023;-90
2021/11/30 03:23:15;;;;;;;5.45;3.70;;;0.30;99.90;;;;;;6305525;22;20019;-90
2021/11/30 03:26:03;;;;;;;10.00;4.45;;;0.30;99.90;;;;;;6282109;22;20031;-90
2021/11/30 03:28:53;;;;;;;7.13;4.07;;;0.20;99.90;;;;;;6282935;22;20426;-87
2021/11/30 03:34:29;;;;;;;4.68;3.80;;;0.20;99.90;;;;;;6303931;22;20110;-89
2021/11/30 03:37:16;;;;;;;6.38;3.70;;;0.20;99.90;;;;;;6240264;22;20019;-90
2021/11/30 03:40:10;;;;;;;8.98;4.70;;;0.20;99.90;;;;;;6281492;22;20092;-91
2021/11/30 03:43:01;;;;;;;6.50;4.30;;;0.20;99.90;;;;;;6281607;22;20046;-90
2021/11/30 03:45:48;;;;;;;8.45;5.32;;;0.10;99.90;;;;;;6283701;22;20095;-90
2021/11/30 03:48:36;;;;;;;11.82;4.80;;;0.10;99.90;;;;;;6241994;22;20610;-89
2021/11/30 03:51:24;;;;;;;11.95;5.03;;;0.10;99.90;;;;;;6282387;22;20354;-88
2021/11/30 03:54:11;;;;;;;7.90;5.13;;;0.10;99.90;;;;;;6283632;22;20023;-90
2021/11/30 03:56:59;;;;;;;11.25;4.75;;;0.10;99.90;;;;;;6282078;22;20153;-90
2021/11/30 03:59:46;;;;;;;12.43;5.25;;;0.10;99.90;;;;;;6283028;22;20111;-89
2021/11/30 04:02:36;;;;;;;15.18;5.57;;;0.10;99.90;;;;;;6284744;22;20153;-89
2021/11/30 04:05:24;;;;;;;9.95;5.72;;;0.10;99.90;;;;;;6283612;22;20035;-90
2021/11/30 04:08:11;;;;;;;8.68;4.63;;;0.10;99.90;;;;;;6302329;22;20406;-87
2021/11/30 04:10:59;;;;;;;10.45;6.47;;;0.10;99.90;;;;;;6305090;22;20046;-89
2021/11/30 04:13:47;;;;;;;9.38;5.50;;;0.10;99.90;;;;;;6274464;22;20031;-91
2021/11/30 04:16:35;;;;;;;7.70;5.57;;;0.10;99.90;;;;;;6250292;22;20053;-90
2021/11/30 04:19:23;;;;;;;13.50;5.88;;;0.10;99.90;;;;;;6230705;22;20031;-88
2021/11/30 04:22:10;;;;;;;7.65;5.07;;;0.10;99.90;;;;;;6252507;22;20070;-87
2021/11/30 04:24:57;;;;;;;10.90;6.30;;;0.10;99.90;;;;;;6231098;22;20085;-88
2021/11/30 04:27:45;;;;;;;12.90;5.72;;;0.00;99.90;;;;;;6230180;22;20036;-88
2021/11/30 04:30:32;;;;;;;9.75;5.63;;;0.10;99.90;;;;;;6252360;22;20399;-87
2021/11/30 04:33:20;;;;;;;13.25;5.55;;;0.10;99.90;;;;;;6229847;22;20034;-88
2021/11/30 04:36:07;;;;;;;11.30;5.68;;;0.10;99.90;;;;;;6273448;22;20024;-88
2021/11/30 04:38:56;;;;;;;11.68;5.32;;;0.00;99.90;;;;;;6252954;22;20026;-88
2021/11/30 04:41:44;;;;;;;11.55;5.70;;;0.00;99.90;;;;;;6233389;22;20119;-89
2021/11/30 04:44:34;;;;;;;10.18;5.75;;;0.00;99.90;;;;;;6259973;22;20023;-90
2021/11/30 04:47:24;;;;;;;8.50;5.53;;;0.00;99.90;;;;;;6252397;22;20035;-89
2021/11/30 04:50:24;;;;;;;9.75;5.53;;;0.00;99.90;;;;;;6270365;22;20020;-89
2021/11/30 04:53:11;;;;;;;10.60;6.03;;;-0.10;99.90;;;;;;6258282;22;20077;-92
2021/11/30 04:56:00;;;;;;;12.48;5.30;;;-0.10;99.90;;;;;;6253860;22;20028;-90
2021/11/30 04:58:47;;;;;;;9.98;5.45;;;-0.10;99.90;;;;;;6254703;22;20067;-88
2021/11/30 05:01:35;;;;;;;8.02;5.53;;;-0.10;99.90;;;;;;6275311;22;20092;-89
2021/11/30 05:04:33;;;;;;;8.38;5.43;;;-0.10;99.90;;;;;;6238282;22;20102;-89
2021/11/30 05:07:20;;;;;;;12.63;5.72;;;-0.10;99.90;;;;;;6235494;22;20096;-89
2021/11/30 05:10:09;;;;;;;9.10;5.65;;;-0.10;99.90;;;;;;6276043;22;20038;-88
2021/11/30 05:13:02;;;;;;;9.48;5.45;;;-0.10;99.90;;;;;;6281943;22;20027;-89
2021/11/30 05:15:51;;;;;;;13.02;6.03;;;-0.10;99.90;;;;;;6285396;22;20174;-89
2021/11/30 05:18:40;;;;;;;11.23;6.03;;;-0.10;99.90;;;;;;6287302;22;20051;-89
2021/11/30 05:21:28;;;;;;;11.57;6.60;;;-0.10;99.90;;;;;;6247858;22;20085;-87
2021/11/30 05:24:15;;;;;;;17.00;6.82;;;-0.10;99.90;;;;;;6289041;22;20047;-89
2021/11/30 05:27:04;;;;;;;9.30;6.22;;;-0.10;99.90;;;;;;6297405;22;20091;-88
2021/11/30 05:29:57;;;;;;;18.30;7.05;;;-0.10;99.90;;;;;;6298704;22;20027;-89
2021/11/30 05:32:45;;;;;;;13.43;6.80;;;-0.20;99.90;;;;;;6269111;22;20416;-90
2021/11/30 06:01:21;;;;;;;9.40;7.15;;;-0.30;99.90;;;;;;6057068;23;20449;-88
2021/11/30 06:04:08;;;;;;;17.45;9.25;;;-0.30;99.90;;;;;;6115310;23;20111;-87
2021/11/30 06:06:56;;;;;;;9.60;7.40;;;-0.30;99.90;;;;;;6259234;22;20410;-88
2021/11/30 06:09:45;;;;;;;12.75;7.53;;;-0.30;99.90;;;;;;6265054;22;20031;-90
2021/11/30 06:12:32;;;;;;;12.45;7.22;;;-0.20;99.90;;;;;;6284759;22;20023;-89
2021/11/30 06:15:22;;;;;;;12.50;7.45;;;-0.20;99.90;;;;;;6285966;22;20464;-90
2021/11/30 06:18:18;;;;;;;12.55;8.07;;;-0.20;99.90;;;;;;6308797;22;20106;-91
2021/11/30 06:21:06;;;;;;;13.48;7.32;;;-0.20;99.90;;;;;;6307236;22;20023;-90
2021/11/30 06:24:01;;;;;;;11.05;7.78;;;-0.30;99.90;;;;;;6284214;22;20033;-88
2021/11/30 06:26:49;;;;;;;15.70;8.13;;;-0.20;99.90;;;;;;6306487;22;20081;-90
2021/11/30 06:29:36;;;;;;;10.60;7.32;;;-0.30;99.90;;;;;;6284647;22;20034;-91
2021/11/30 06:32:26;;;;;;;11.68;7.47;;;-0.30;99.90;;;;;;6262927;22;20080;-89
2021/11/30 06:35:15;;;;;;;10.52;8.05;;;-0.30;99.90;;;;;;6245496;22;20041;-86
2021/11/30 06:38:02;;;;;;;13.55;7.50;;;-0.30;99.90;;;;;;6281314;22;20047;-89
2021/11/30 06:41:29;;;;;;;13.15;8.18;;;-0.30;99.90;;;;;;6281436;22;20418;-90
2021/11/30 06:44:17;;;;;;;10.27;7.40;;;-0.30;99.90;;;;;;6281486;22;20117;-87
2021/11/30 06:47:06;;;;;;;9.95;7.35;;;-0.30;99.90;;;;;;6283321;22;20757;-87
2021/11/30 06:49:53;;;;;;;10.48;7.30;;;-0.30;99.90;;;;;;6306311;22;20019;-87
2021/11/30 06:52:41;;;;;;;13.10;7.18;;;-0.30;99.90;;;;;;6242382;22;20038;-88
2021/11/30 06:55:31;;;;;;;12.02;6.78;;;-0.30;99.90;;;;;;6281754;22;20118;-91
2021/11/30 06:58:25;;;;;;;12.10;6.22;;;-0.30;99.90;;;;;;6261476;22;20073;-89
2021/11/30 07:01:13;;;;;;;13.38;7.65;;;-0.20;99.90;;;;;;6283608;22;20023;-90
2021/11/30 07:04:02;;;;;;;11.88;6.72;;;-0.30;99.90;;;;;;6284716;22;20027;-89
2021/11/30 07:07:08;;;;;;;7.07;5.82;;;-0.20;99.90;;;;;;6260829;22;20039;-88
2021/11/30 07:10:33;;;;;;;;;;;;;;;;;;;;;
2021/11/30 07:13:22;;;;;;;11.27;6.35;;;-0.20;99.90;;;;;;6287668;22;20022;-90
2021/11/30 07:16:31;;;;;;;10.50;5.53;;;-0.20;99.90;;;;;;6286544;22;20030;-91
2021/11/30 07:19:28;;;;;;;9.45;6.00;;;-0.20;99.90;;;;;;6304844;22;20023;-90
2021/11/30 07:22:16;;;;;;;9.80;6.57;;;-0.20;99.90;;;;;;6282717;22;20042;-89
2021/11/30 07:25:12;;;;;;;12.93;6.22;;;-0.20;99.90;;;;;;6262139;22;20042;-90
2021/11/30 07:28:01;;;;;;;8.48;6.10;;;-0.20;99.90;;;;;;6281056;22;20110;-90
2021/11/30 07:30:51;;;;;;;6.45;4.70;;;-0.20;99.90;;;;;;6283771;22;20027;-89
2021/11/30 07:34:00;;;;;;;8.63;4.80;;;-0.10;99.90;;;;;;6283170;22;20088;-90
2021/11/30 07:36:48;;;;;;;8.75;5.47;;;-0.10;99.90;;;;;;6305681;22;20326;-90
2021/11/30 07:39:42;;;;;;;7.72;5.25;;;-0.10;99.90;;;;;;6285134;22;20057;-90
2021/11/30 07:42:39;;;;;;;6.97;4.82;;;-0.10;99.90;;;;;;6283839;22;20029;-91
2021/11/30 07:45:26;;;;;;;6.00;4.35;;;0.00;99.90;;;;;;6284148;22;20325;-87
2021/11/30 07:48:17;;;;;;;10.60;4.22;;;0.00;99.90;;;;;;6284265;22;20406;-89
2021/11/30 07:51:16;;;;;;;7.38;4.82;;;0.00;99.90;;;;;;6280445;22;20084;-90
2021/11/30 07:54:04;;;;;;;9.52;4.15;;;0.10;99.90;;;;;;6303444;22;20027;-90
2021/11/30 07:56:51;;;;;;;4.13;3.58;;;0.10;99.90;;;;;;6278173;22;20049;-88
2021/11/30 07:59:39;;;;;;;8.48;4.50;;;0.20;99.90;;;;;;6277344;22;20582;-88
2021/11/30 08:02:46;;;;;;;5.45;3.95;;;0.20;99.90;;;;;;6260028;22;20080;-91
2021/11/30 08:05:42;;;;;;;5.30;3.90;;;0.20;99.90;;;;;;6286897;22;20375;-91
2021/11/30 08:08:40;;;;;;;8.55;3.97;;;0.20;99.90;;;;;;6286064;22;20042;-91
2021/11/30 08:11:31;;;;;;;5.78;4.20;;;0.20;99.90;;;;;;6263881;22;20043;-90
2021/11/30 08:14:18;;;;;;;7.13;4.43;;;0.30;99.90;;;;;;6283795;22;20099;-89
2021/11/30 08:17:12;;;;;;;9.75;4.70;;;0.30;99.90;;;;;;6301706;22;20029;-90
2021/11/30 08:20:19;;;;;;;6.05;4.40;;;0.30;99.90;;;;;;6283306;22;20107;-88
2021/11/30 08:23:08;;;;;;;8.73;5.13;;;0.30;99.90;;;;;;6281130;22;20070;-87
2021/11/30 08:25:57;;;;;;;6.07;4.28;;;0.30;99.90;;;;;;6284841;22;20046;-89
2021/11/30 08:28:50;;;;;;;7.18;3.95;;;0.30;99.90;;;;;;6285235;22;20047;-88
2021/11/30 08:31:38;;;;;;;6.13;4.05;;;0.40;99.90;;;;;;6286503;22;20077;-90
2021/11/30 08:34:36;;;;;;;5.90;3.65;;;0.40;99.90;;;;;;6278378;22;20079;-89
2021/11/30 08:37:25;;;;;;;9.20;4.32;;;0.40;99.90;;;;;;6282154;22;20034;-89
2021/11/30 08:40:13;;;;;;;7.35;4.22;;;0.40;99.90;;;;;;6284925;22;20023;-90
2021/11/30 08:43:01;;;;;;;5.13;3.70;;;0.50;99.90;;;;;;6262748;22;20019;-88
2021/11/30 08:46:05;;;;;;;9.55;4.80;;;0.50;99.90;;;;;;6287080;22;20256;-86
2021/11/30 08:48:58;;;;;;;9.23;4.70;;;0.60;99.90;;;;;;6261136;22;20034;-92
2021/11/30 08:51:45;;;;;;;;;;;0.60;99.90;;;;;;6285403;22;20096;-90
2021/11/30 08:54:42;;;;;;;6.53;4.38;;;0.60;99.90;;;;;;6292219;22;20032;-88
2021/11/30 08:57:35;;;;;;;5.57;3.75;;;0.60;99.90;;;;;;6290768;22;20027;-90
2021/11/30 09:00:33;;;;;;;;;;;0.60;99.90;;;;;;6297077;22;20568;-90
2021/11/30 09:03:34;;;;;;;8.45;4.15;;;0.60;99.90;;;;;;6292580;22;19914;-91
2021/11/30 09:06:38;;;;;;;6.82;3.80;;;0.70;99.90;;;;;;6322414;22;20054;-89
2021/11/30 09:10:22;;;;;;;3.67;3.22;;;0.70;99.90;;;;;;6186681;23;20185;-89
2021/11/30 09:13:44;;;;;;;6.93;4.43;;;0.70;99.90;;;;;;6178478;23;20036;-90
2021/11/30 09:17:13;;;;;;;6.38;3.50;;;0.80;99.90;;;;;;6177073;23;20029;-91
2021/11/30 09:20:39;;;;;;;3.78;3.20;;;0.80;99.90;;;;;;6161051;23;20183;-90
2021/11/30 09:23:54;;;;;;;4.53;3.50;;;0.90;99.90;;;;;;6161840;23;20459;-89
2021/11/30 09:27:16;;;;;;;5.00;3.20;;;0.90;99.90;;;;;;6205604;22;20089;-91
2021/11/30 09:30:20;;;;;;;3.72;3.22;;;0.90;99.90;;;;;;6286255;22;20312;-91
2021/11/30 09:33:22;;;;;;;4.28;2.90;;;0.90;99.90;;;;;;6285874;22;20041;-88
2021/11/30 09:36:16;;;;;;;4.43;3.72;;;0.90;99.90;;;;;;6262782;22;20464;-90
2021/11/30 09:39:07;;;;;;;5.00;3.30;;;0.90;99.90;;;;;;6309272;22;20030;-89
2021/11/30 09:42:06;;;;;;;5.72;3.00;;;0.90;99.90;;;;;;6304866;22;20027;-89
2021/11/30 09:45:04;;;;;;;6.22;2.92;;;1.00;99.90;;;;;;6284942;22;20042;-88
2021/11/30 09:47:53;;;;;;;5.47;3.40;;;1.10;99.90;;;;;;6308074;22;20027;-89
2021/11/30 09:50:43;;;;;;;2.78;2.58;;;1.20;99.90;;;;;;6284874;22;20023;-91
2021/11/30 09:53:32;;;;;;;4.53;2.53;;;1.20;99.90;;;;;;6284237;22;20361;-89
2021/11/30 09:56:25;;;;;;;2.90;2.45;;;1.20;99.90;;;;;;6264258;22;20095;-93
2021/11/30 09:59:29;;;;;;;2.80;2.40;;;1.20;99.90;;;;;;6285948;22;20023;-91
2021/11/30 10:02:18;;;;;;;3.25;2.10;;;1.20;99.90;;;;;;6284175;22;20085;-89
2021/11/30 10:05:09;;;;;;;2.28;2.08;;;1.20;99.90;;;;;;6284629;22;20098;-91
2021/11/30 10:08:13;;;;;;;;;;;;;;;;;;;;;
2021/11/30 10:11:57;;;;;;;;;;;;;;;;;;;;;
2021/11/30 10:15:36;;;;;;;2.20;2.00;;;1.20;99.90;;;;;;6300061;22;20030;-91
2021/11/30 10:19:16;;;;;;;3.20;2.13;;;1.30;99.90;;;;;;6285406;22;20059;-93
2021/11/30 10:22:56;;;;;;;2.08;1.98;;;1.30;99.90;;;;;;6137966;23;20037;-92
2021/11/30 10:26:47;;;;;;;1.85;1.67;;;1.30;99.90;;;;;;6168632;23;20024;-91
2021/11/30 10:29:44;;;;;;;2.92;2.10;;;1.30;99.90;;;;;;6231692;23;20028;-92
2021/11/30 10:32:39;;;;;;;2.85;2.40;;;1.30;99.90;;;;;;6224588;22;20344;-91
2021/11/30 10:35:31;;;;;;;3.85;2.10;;;1.30;99.90;;;;;;6243312;22;20400;-89
2021/11/30 10:38:22;;;;;;;4.55;2.17;;;1.30;99.90;;;;;;6220644;23;20028;-90
2021/11/30 10:42:03;;;;;;;3.10;1.90;;;1.20;99.90;;;;;;6244560;22;20028;-90
2021/11/30 10:49:45;;;;;;;2.22;1.98;;;1.20;99.90;;;;;;5941408;24;20471;-90
2021/11/30 11:01:49;;;;;;;;;;;;;;;;;;;;;
2021/11/30 11:05:38;;;;;;;;;;;;;;;;;;;;;
2021/11/30 11:09:12;;;;;;;4.03;1.92;;;1.20;99.90;;;;;;5950457;24;20062;-91
2021/11/30 11:12:24;;;;;;;3.38;2.08;;;1.20;99.90;;;;;;5985301;23;20024;-91
2021/11/30 11:15:11;;;;;;;2.65;1.80;;;1.20;99.90;;;;;;6091229;22;20023;-87
2021/11/30 11:18:17;;;;;;;2.20;2.00;;;1.20;99.90;;;;;;6303407;22;20037;-90
2021/11/30 11:21:17;;;;;;;2.05;1.90;;;1.20;99.90;;;;;;6280826;22;20084;-88
2021/11/30 11:24:14;;;;;;;2.33;1.95;;;1.20;99.90;;;;;;6282079;22;20038;-89
2021/11/30 11:27:05;;;;;;;2.15;1.92;;;1.20;99.90;;;;;;6304561;22;20027;-88
2021/11/30 11:29:54;;;;;;;3.90;2.10;;;1.20;99.90;;;;;;6302900;22;20118;-87
2021/11/30 11:32:43;;;;;;;2.63;1.98;;;1.10;99.90;;;;;;6285129;22;20417;-87
2021/11/30 11:35:34;;;;;;;3.08;2.10;;;1.10;99.90;;;;;;6284005;22;20039;-87
2021/11/30 11:38:23;;;;;;;3.75;2.35;;;1.10;99.90;;;;;;6281864;22;20042;-88
2021/11/30 11:41:11;;;;;;;3.33;2.42;;;1.10;99.90;;;;;;6282651;22;20019;-92
2021/11/30 11:43:59;;;;;;;2.67;2.00;;;1.10;99.90;;;;;;6258475;22;20038;-92
2021/11/30 11:46:48;;;;;;;2.78;2.47;;;1.20;99.90;;;;;;6284433;22;20323;-91
2021/11/30 11:49:50;;;;;;;2.97;2.30;;;1.20;99.90;;;;;;6287596;22;20445;-93
2021/11/30 11:52:38;;;;;;;3.60;2.90;;;1.30;99.90;;;;;;6310152;22;20058;-91
2021/11/30 11:55:31;;;;;;;3.90;3.20;;;1.20;99.90;;;;;;6287276;22;20027;-90
2021/11/30 11:58:28;;;;;;;;;;;1.20;99.90;;;;;;6284408;22;20401;-90
2021/11/30 12:01:24;;;;;;;4.82;3.10;;;1.10;99.90;;;;;;6287103;22;20213;-90
2021/11/30 12:04:22;;;;;;;3.38;2.75;;;1.20;99.90;;;;;;6309588;22;20418;-91
2021/11/30 12:07:10;;;;;;;3.90;2.70;;;1.10;99.90;;;;;;6285036;22;20031;-90
2021/11/30 12:10:19;;;;;;;3.38;2.42;;;1.10;99.90;;;;;;6284962;22;20023;-89
2021/11/30 12:13:09;;;;;;;3.55;2.70;;;1.10;99.90;;;;;;6309334;22;20038;-89
2021/11/30 12:16:05;;;;;;;5.28;2.17;;;1.10;99.90;;;;;;6285810;22;20042;-90
2021/11/30 12:18:57;;;;;;;4.18;2.22;;;1.10;99.90;;;;;;6287677;22;20337;-91
2021/11/30 12:21:48;;;;;;;3.90;2.85;;;1.10;99.90;;;;;;6262454;22;20034;-88
2021/11/30 12:24:47;;;;;;;3.17;2.83;;;1.10;99.90;;;;;;6266222;22;20023;-91
2021/11/30 12:27:40;;;;;;;;;;;1.10;99.90;;;;;;6308678;22;20038;-89
2021/11/30 12:30:44;;;;;;;3.40;2.58;;;1.10;99.90;;;;;;6286197;22;19918;-91
2021/11/30 12:33:39;;;;;;;4.75;2.65;;;1.10;99.90;;;;;;6286098;22;20164;-88
2021/11/30 12:36:34;;;;;;;3.80;2.80;;;1.10;99.90;;;;;;6307122;22;20031;-89
2021/11/30 12:39:23;;;;;;;2.78;2.58;;;1.10;99.90;;;;;;6284867;22;20019;-90
2021/11/30 12:42:11;;;;;;;4.63;2.60;;;1.10;99.90;;;;;;6288338;22;20023;-89
2021/11/30 12:44:59;;;;;;;4.25;2.67;;;1.10;99.90;;;;;;6290210;22;20027;-89
2021/11/30 12:47:46;;;;;;;4.28;2.30;;;1.10;99.90;;;;;;6274954;22;20323;-91
2021/11/30 12:50:34;;;;;;;4.25;2.58;;;1.10;99.90;;;;;;6293234;22;20329;-89
2021/11/30 12:53:38;;;;;;;3.38;2.88;;;1.00;99.90;;;;;;6295367;22;20027;-90
2021/11/30 12:56:52;;;;;;;4.20;2.63;;;1.10;99.90;;;;;;6296935;22;20093;-91
2021/11/30 12:59:42;;;;;;;4.05;2.80;;;1.00;99.90;;;;;;6295556;22;20046;-91
2021/11/30 13:02:48;;;;;;;4.78;2.75;;;1.10;99.90;;;;;;6256013;23;20137;-88
2021/11/30 13:05:54;;;;;;;5.63;2.75;;;1.00;99.90;;;;;;6238629;23;20024;-90
2021/11/30 13:09:03;;;;;;;3.53;2.92;;;1.10;99.90;;;;;;6253109;23;20020;-89
2021/11/30 13:12:01;;;;;;;4.57;3.05;;;1.10;99.90;;;;;;6244684;22;20095;-91
2021/11/30 13:15:04;;;;;;;3.33;2.42;;;1.10;99.90;;;;;;6225354;23;20027;-91
2021/11/30 13:17:53;;;;;;;5.15;3.00;;;1.10;99.90;;;;;;6223168;23;20024;-90
2021/11/30 13:20:42;;;;;;;3.42;2.80;;;1.10;99.90;;;;;;6222055;23;20023;-92
2021/11/30 13:23:30;;;;;;;3.33;2.60;;;1.20;99.90;;;;;;6221556;23;20020;-88
2021/11/30 13:26:20;;;;;;;2.78;2.30;;;1.20;99.90;;;;;;6221254;23;20431;-89
2021/11/30 13:29:27;;;;;;;4.72;2.85;;;1.20;99.90;;;;;;6223860;23;20166;-89
2021/11/30 13:32:23;;;;;;;3.63;2.55;;;1.10;99.90;;;;;;6221212;23;20042;-88
2021/11/30 13:35:20;;;;;;;2.60;2.20;;;1.10;99.90;;;;;;6284831;22;20043;-89
2021/11/30 13:38:15;;;;;;;5.07;2.70;;;1.10;99.90;;;;;;6282113;22;20130;-88
2021/11/30 13:41:11;;;;;;;4.82;3.00;;;1.10;99.90;;;;;;6282146;22;20380;-90
2021/11/30 13:43:59;;;;;;;4.00;3.00;;;1.10;99.90;;;;;;6284219;22;20023;-88
2021/11/30 13:46:50;;;;;;;3.38;2.60;;;1.10;99.90;;;;;;6280828;22;20038;-89
2021/11/30 13:49:46;;;;;;;3.83;2.90;;;1.10;99.90;;;;;;6303816;22;20038;-89
2021/11/30 13:52:33;;;;;;;2.78;2.35;;;1.10;99.90;;;;;;6284528;22;20031;-89
2021/11/30 13:55:28;;;;;;;3.13;2.60;;;1.10;99.90;;;;;;6240428;22;20031;-91
2021/11/30 13:58:32;;;;;;;2.55;2.22;;;1.10;99.90;;;;;;6283677;22;20023;-91
2021/11/30 14:01:33;;;;;;;2.50;2.30;;;1.10;99.90;;;;;;6263832;22;20398;-90
2021/11/30 14:04:28;;;;;;;4.13;2.42;;;1.10;99.90;;;;;;6282774;22;20138;-90
2021/11/30 14:07:16;;;;;;;3.30;2.40;;;1.10;99.90;;;;;;6282637;22;20024;-90
2021/11/30 14:10:18;;;;;;;2.80;1.88;;;1.20;99.90;;;;;;6284069;22;20102;-92
2021/11/30 14:13:07;;;;;;;2.28;1.92;;;1.20;99.90;;;;;;6304085;22;20027;-92
2021/11/30 14:15:59;;;;;;;2.72;1.95;;;1.20;99.90;;;;;;6307669;22;20042;-90
2021/11/30 14:19:03;;;;;;;2.20;1.90;;;1.20;99.90;;;;;;6293529;22;20086;-91
2021/11/30 14:22:00;;;;;;;2.15;2.00;;;1.20;99.90;;;;;;6299634;22;20089;-91
2021/11/30 14:24:59;;;;;;;1.88;1.73;;;1.20;99.90;;;;;;6297085;22;20015;-91
2021/11/30 14:27:51;;;;;;;1.95;1.67;;;1.20;99.90;;;;;;6283796;22;20099;-91
2021/11/30 14:30:46;;;;;;;2.47;2.15;;;1.20;99.90;;;;;;6308854;22;20448;-91
2021/11/30 14:33:41;;;;;;;4.13;2.13;;;1.30;99.90;;;;;;6288605;22;20335;-92
2021/11/30 14:36:48;;;;;;;3.83;2.50;;;1.30;99.90;;;;;;6281549;22;20059;-91
2021/11/30 14:39:37;;;;;;;2.75;2.45;;;1.30;99.90;;;;;;6287816;22;20034;-91
2021/11/30 14:43:19;;;;;;;2.17;1.90;;;1.30;99.90;;;;;;6293974;22;20060;-92
2021/11/30 14:46:18;;;;;;;3.15;2.35;;;1.30;99.90;;;;;;6315750;22;20081;-90
2021/11/30 14:49:14;;;;;;;3.95;2.53;;;1.40;99.90;;;;;;6290242;22;20050;-90
2021/11/30 14:52:39;;;;;;;1.95;1.60;;;1.40;99.90;;;;;;6293307;22;20027;-91
2021/11/30 14:55:48;;;;;;;;;;;;;;;;;;;;;
2021/11/30 14:58:53;;;;;;;2.30;2.00;;;1.40;99.90;;;;;;6310294;22;20034;-88
2021/11/30 15:02:09;;;;;;;2.15;1.80;;;1.40;99.90;;;;;;6282044;22;20107;-88
2021/11/30 15:05:36;;;;;;;2.25;1.77;;;1.40;99.90;;;;;;6304531;22;20027;-87
2021/11/30 15:08:55;;;;;;;2.00;1.50;;;1.50;99.90;;;;;;6266186;22;20019;-88
2021/11/30 15:12:00;;;;;;;1.77;1.67;;;1.50;99.90;;;;;;6283051;22;20023;-88
2021/11/30 15:14:50;;;;;;;3.10;1.58;;;1.50;99.90;;;;;;6282897;22;20027;-89
2021/11/30 15:17:45;;;;;;;1.33;1.27;;;1.50;99.90;;;;;;6282053;22;20102;-90
2021/11/30 15:20:48;;;;;;;1.58;1.40;;;1.50;99.90;;;;;;6284684;22;20019;-90
2021/11/30 15:23:43;;;;;;;3.35;1.88;;;1.60;99.90;;;;;;6262759;22;20019;-89
2021/11/30 15:26:39;;;;;;;1.23;1.23;;;1.60;99.90;;;;;;6283609;22;20049;-90
2021/11/30 15:29:35;;;;;;;1.90;1.40;;;1.60;99.90;;;;;;6307104;22;20391;-87
2021/11/30 15:32:32;;;;;;;1.65;1.52;;;1.60;99.90;;;;;;6305744;22;20023;-89
2021/11/30 15:35:22;;;;;;;1.60;1.42;;;1.60;99.90;;;;;;6286313;22;20019;-90
2021/11/30 15:38:13;;;;;;;1.38;1.27;;;1.60;99.90;;;;;;6288014;22;20034;-88
2021/11/30 15:41:06;;;;;;;2.40;1.73;;;1.60;99.90;;;;;;6285218;22;20038;-91
2021/11/30 15:44:10;;;;;;;2.25;1.60;;;1.60;99.90;;;;;;6307769;22;20033;-90
2021/11/30 15:47:09;;;;;;;1.50;1.40;;;1.60;99.90;;;;;;6284595;22;20023;-92
2021/11/30 15:50:01;;;;;;;2.60;1.60;;;1.60;99.90;;;;;;6286195;22;20034;-90
2021/11/30 15:52:51;;;;;;;1.63;1.50;;;1.60;99.90;;;;;;6287409;22;20169;-89
2021/11/30 15:59:09;;;;;;;2.28;1.52;;;1.60;99.90;;;;;;6306795;22;20034;-88
2021/11/30 16:02:00;;;;;;;1.70;1.60;;;1.60;99.90;;;;;;6288166;22;20023;-90
2021/11/30 16:04:58;;;;;;;1.88;1.70;;;1.60;99.90;;;;;;6296090;22;20019;-90
2021/11/30 16:07:46;;;;;;;2.17;1.80;;;1.60;99.90;;;;;;6303498;22;20008;-91
2021/11/30 16:10:50;;;;;;;2.65;2.03;;;1.60;99.90;;;;;;6325529;22;20075;-91
2021/11/30 16:13:40;;;;;;;3.65;2.33;;;1.60;99.90;;;;;;6253897;22;20098;-89
2021/11/30 16:16:42;;;;;;;3.45;1.90;;;1.60;99.90;;;;;;6251863;22;20028;-92